Time;durP1;ratioP1;P1;durP2;ratioP2;P2;SDS_P1;SDS_P2;PMS_P1;PMS_P2;Temp;Humidity;BMP_temperature;BMP_pressure;BME280_temperature;BME280_humidity;BME280_pressure;Samples;Min_cycle;Max_cycle;Signal;HPM_P1;HPM_P2
2022/09/08 00:02:10;;;;;;;8.13;5.27;;;;;;;16.39;100.00;100296.34;5010227;28;20211;-73
2022/09/08 00:04:36;;;;;;;7.07;5.33;;;;;;;16.34;100.00;100293.13;5011445;28;20200;-73
2022/09/08 00:07:06;;;;;;;9.63;5.17;;;;;;;16.30;100.00;100290.72;5007166;28;20200;-74
2022/09/08 00:09:33;;;;;;;7.83;5.40;;;;;;;16.24;100.00;100302.44;5006697;28;20626;-73
2022/09/08 00:12:01;;;;;;;8.50;5.37;;;;;;;16.18;100.00;100297.50;5000194;28;20665;-72
2022/09/08 00:14:28;;;;;;;6.40;5.27;;;;;;;16.14;100.00;100298.59;5011593;28;20197;-74
2022/09/08 00:16:54;;;;;;;6.87;5.13;;;;;;;16.12;100.00;100295.22;5009839;28;20320;-74
2022/09/08 00:19:22;;;;;;;7.23;5.63;;;;;;;16.07;100.00;100292.81;5004419;28;20237;-73
2022/09/08 00:21:49;;;;;;;6.60;5.17;;;;;;;16.02;100.00;100295.72;5006655;28;20220;-73
2022/09/08 00:24:15;;;;;;;6.70;5.20;;;;;;;15.99;100.00;100295.00;5012180;28;20215;-74
2022/09/08 00:26:41;;;;;;;6.87;5.17;;;;;;;15.94;100.00;100290.03;5008821;28;20565;-73
2022/09/08 00:29:08;;;;;;;7.57;5.23;;;;;;;15.87;100.00;100276.34;5010578;28;20227;-73
2022/09/08 00:31:38;;;;;;;7.77;5.20;;;;;;;15.82;100.00;100285.41;5025803;28;20200;-74
2022/09/08 00:34:05;;;;;;;7.83;5.47;;;;;;;15.77;100.00;100290.91;5015503;28;20193;-74
2022/09/08 00:36:33;;;;;;;6.00;5.27;;;;;;;15.75;100.00;100289.31;4999431;28;20270;-73
2022/09/08 00:39:01;;;;;;;8.27;5.27;;;;;;;15.71;100.00;100284.19;5012304;28;20282;-73
2022/09/08 00:41:29;;;;;;;7.20;5.23;;;;;;;15.68;100.00;100294.84;5018042;28;20576;-73
2022/09/08 00:44:00;;;;;;;7.47;5.03;;;;;;;15.68;100.00;100299.25;5010559;28;20205;-72
2022/09/08 00:46:32;;;;;;;8.17;5.40;;;;;;;15.66;100.00;100293.25;4994735;28;20230;-73
2022/09/08 00:49:04;;;;;;;6.57;5.10;;;;;;;15.63;100.00;100283.72;5002372;28;20221;-73
2022/09/08 00:51:33;;;;;;;9.50;5.43;;;;;;;15.60;100.00;100283.03;5005753;28;20705;-71
2022/09/08 00:54:00;;;;;;;7.97;5.80;;;;;;;15.56;100.00;100277.09;5013197;28;20197;-74
2022/09/08 00:56:29;;;;;;;7.30;5.07;;;;;;;15.52;100.00;100284.28;5003856;28;20228;-73
2022/09/08 00:58:56;;;;;;;6.87;5.13;;;;;;;15.50;100.00;100274.78;4999758;28;20251;-74
2022/09/08 01:01:23;;;;;;;7.73;5.57;;;;;;;15.49;100.00;100276.56;5007595;28;20302;-73
2022/09/08 01:03:49;;;;;;;7.23;5.40;;;;;;;15.47;100.00;100273.16;5013696;28;20201;-74
2022/09/08 01:15:06;;;;;;;7.50;5.80;;;;;;;15.32;100.00;100259.06;5017864;28;20708;-74
2022/09/08 01:17:33;;;;;;;8.00;5.40;;;;;;;15.28;100.00;100261.91;5007455;28;20235;-73
2022/09/08 01:20:01;;;;;;;9.10;6.03;;;;;;;15.27;100.00;100261.06;5016119;28;20205;-71
2022/09/08 01:22:52;;;;;;;7.70;5.70;;;;;;;15.23;100.00;100259.53;4996761;28;20208;-73
2022/09/08 01:25:40;;;;;;;6.70;4.87;;;;;;;15.20;100.00;100259.69;4995258;28;20680;-72
2022/09/08 01:28:13;;;;;;;8.07;5.27;;;;;;;15.19;100.00;100252.72;5012088;28;20211;-73
2022/09/08 01:30:42;;;;;;;9.70;6.03;;;;;;;15.18;100.00;100256.31;5010128;28;20203;-73
2022/09/08 01:33:11;;;;;;;7.77;5.43;;;;;;;15.16;100.00;100252.88;5008937;28;20601;-73
2022/09/08 01:35:39;;;;;;;7.43;5.50;;;;;;;15.13;100.00;100256.53;5009836;28;20203;-74
2022/09/08 01:38:06;;;;;;;8.40;5.97;;;;;;;15.10;100.00;100255.84;5007781;28;20231;-72
2022/09/08 01:40:33;;;;;;;8.93;5.60;;;;;;;15.09;100.00;100249.75;5004031;28;20222;-73
2022/09/08 01:42:59;;;;;;;8.43;5.87;;;;;;;15.07;100.00;100253.34;5023121;28;20208;-73
2022/09/08 01:45:27;;;;;;;7.90;5.33;;;;;;;15.06;100.00;100264.81;5009243;28;20199;-73
2022/09/08 01:47:54;;;;;;;7.43;5.27;;;;;;;15.02;100.00;100264.09;5011413;28;20249;-73
2022/09/08 01:50:21;;;;;;;11.17;5.40;;;;;;;15.03;100.00;100270.19;5005335;28;20201;-74
2022/09/08 01:52:48;;;;;;;7.33;5.50;;;;;;;15.02;100.00;100269.34;5008308;28;20206;-71
2022/09/08 01:55:15;;;;;;;8.43;5.30;;;;;;;15.00;100.00;100260.69;5010237;28;20203;-73
2022/09/08 01:57:41;;;;;;;8.60;5.97;;;;;;;14.98;100.00;100254.66;5020085;28;20242;-73
2022/09/08 02:00:09;;;;;;;8.13;5.50;;;;;;;14.96;100.00;100254.75;5006357;28;20251;-73
2022/09/08 02:02:37;;;;;;;7.13;5.50;;;;;;;14.98;100.00;100256.44;5011108;28;20595;-74
2022/09/08 02:05:03;;;;;;;10.03;6.47;;;;;;;15.00;100.00;100238.84;4994705;28;20227;-73
2022/09/08 02:07:31;;;;;;;8.97;6.37;;;;;;;15.02;100.00;100232.59;4998535;28;20959;-73
2022/09/08 02:09:58;;;;;;;7.83;5.70;;;;;;;15.01;100.00;100219.56;5009666;28;20214;-73
2022/09/08 02:12:24;;;;;;;9.70;6.13;;;;;;;15.01;100.00;100217.78;5005571;28;20199;-73
2022/09/08 02:14:51;;;;;;;9.40;6.00;;;;;;;15.02;100.00;100216.84;5008285;28;20211;-73
2022/09/08 02:17:18;;;;;;;10.00;5.70;;;;;;;15.04;100.00;100217.63;5009123;28;20235;-74
2022/09/08 02:19:46;;;;;;;6.70;5.63;;;;;;;15.05;100.00;100207.97;5009835;28;20201;-73
2022/09/08 02:22:12;;;;;;;10.63;6.00;;;;;;;15.04;100.00;100201.88;5009761;28;20212;-73
2022/09/08 02:24:39;;;;;;;6.60;5.30;;;;;;;15.05;100.00;100200.09;5009188;28;20215;-73
2022/09/08 02:27:05;;;;;;;8.93;6.00;;;;;;;15.04;100.00;100204.50;5006328;28;20205;-72
2022/09/08 02:29:32;;;;;;;7.73;5.83;;;;;;;15.03;100.00;100205.41;5014083;28;20697;-73
2022/09/08 02:31:58;;;;;;;8.47;5.80;;;;;;;15.01;100.00;100206.44;5025369;28;20210;-74
2022/09/08 02:34:25;;;;;;;7.80;5.80;;;;;;;15.00;100.00;100209.97;5015775;28;20206;-74
2022/09/08 02:36:53;;;;;;;7.90;5.77;;;;;;;14.98;100.00;100211.81;5004341;28;20203;-74
2022/09/08 02:39:20;;;;;;;8.83;5.80;;;;;;;14.98;100.00;100207.41;5012403;28;20218;-72
2022/09/08 02:41:47;;;;;;;5.77;5.07;;;;;;;14.96;100.00;100207.50;5021527;28;20225;-73
2022/09/08 02:44:14;;;;;;;7.30;5.53;;;;;;;14.95;100.00;100205.81;5018866;28;20200;-73
2022/09/08 02:46:41;;;;;;;9.03;6.27;;;;;;;14.93;100.00;100209.41;5013200;28;20543;-71
2022/09/08 02:49:10;;;;;;;7.50;5.47;;;;;;;14.90;100.00;100189.44;5011456;28;20716;-73
2022/09/08 02:51:37;;;;;;;7.37;5.27;;;;;;;14.89;100.00;100189.53;5010191;28;20256;-72
2022/09/08 02:54:05;;;;;;;7.90;5.83;;;;;;;14.85;100.00;100180.97;5010640;28;20218;-73
2022/09/08 02:56:31;;;;;;;6.87;5.67;;;;;;;14.85;100.00;100188.81;5009069;28;20200;-72
2022/09/08 02:58:57;;;;;;;7.90;5.50;;;;;;;14.85;100.00;100193.25;5021405;28;20230;-73
2022/09/08 03:01:24;;;;;;;8.60;5.27;;;;;;;14.84;100.00;100196.78;5012229;28;20209;-73
2022/09/08 03:03:50;;;;;;;7.50;5.73;;;;;;;14.82;100.00;100196.84;5012944;28;20205;-71
2022/09/08 03:06:18;;;;;;;9.13;5.10;;;;;;;14.81;100.00;100217.91;5006754;28;20278;-72
2022/09/08 03:08:45;;;;;;;9.40;5.50;;;;;;;14.77;100.00;100204.09;5006729;28;20224;-73
2022/09/08 03:11:13;;;;;;;7.40;5.27;;;;;;;14.74;100.00;100207.75;5010833;28;20200;-73
2022/09/08 03:13:40;;;;;;;7.60;6.10;;;;;;;14.70;100.00;100203.56;5026627;28;20199;-73
2022/09/08 03:16:07;;;;;;;8.60;5.77;;;;;;;14.68;100.00;100200.16;5011668;28;20192;-72
2022/09/08 03:18:33;;;;;;;7.37;5.23;;;;;;;14.63;100.00;100202.16;4998021;28;20238;-73
2022/09/08 03:21:01;;;;;;;8.93;6.00;;;;;;;14.62;100.00;100202.25;5014244;28;20222;-73
2022/09/08 03:23:28;;;;;;;7.07;6.00;;;;;;;14.58;100.00;100205.03;4999462;28;20201;-73
2022/09/08 03:25:55;;;;;;;8.83;6.07;;;;;;;14.57;100.00;100203.28;5012384;28;20195;-73
2022/09/08 03:28:25;;;;;;;8.80;6.00;;;;;;;14.54;100.00;100195.56;5014850;28;20217;-72
2022/09/08 03:30:52;;;;;;;7.10;5.67;;;;;;;14.50;100.00;100187.94;5013271;28;20560;-72
2022/09/08 03:33:18;;;;;;;8.80;5.77;;;;;;;14.43;100.00;100176.91;5010720;28;20265;-72
2022/09/08 03:35:46;;;;;;;7.80;5.83;;;;;;;14.40;100.00;100169.16;5008084;28;20199;-73
2022/09/08 03:38:13;;;;;;;7.20;5.50;;;;;;;14.39;100.00;100172.75;5011008;28;20226;-72
2022/09/08 03:40:41;;;;;;;9.97;5.70;;;;;;;14.39;100.00;100177.97;5013162;28;20259;-73
2022/09/08 03:43:07;;;;;;;7.70;5.37;;;;;;;14.36;100.00;100173.72;5009206;28;20209;-72
2022/09/08 03:45:35;;;;;;;8.60;6.07;;;;;;;14.34;100.00;100177.34;5011737;28;20194;-73
2022/09/08 03:48:02;;;;;;;6.57;5.13;;;;;;;14.33;100.00;100180.88;5007436;28;20216;-73
2022/09/08 03:50:28;;;;;;;6.90;5.50;;;;;;;14.30;100.00;100179.28;5012753;28;20189;-72
2022/09/08 03:52:55;;;;;;;9.33;5.57;;;;;;;14.28;100.00;100173.25;5005108;28;20192;-73
2022/09/08 03:55:21;;;;;;;8.83;5.70;;;;;;;14.29;100.00;100174.09;5006290;28;20196;-73
2022/09/08 03:57:47;;;;;;;9.07;5.73;;;;;;;14.26;100.00;100179.50;5010989;28;20228;-73
2022/09/08 04:00:15;;;;;;;8.70;5.53;;;;;;;14.23;100.00;100172.63;5010682;28;20690;-72
2022/09/08 04:02:42;;;;;;;8.13;6.20;;;;;;;14.19;100.00;100164.06;5011357;28;20208;-73
2022/09/08 04:05:10;;;;;;;8.90;6.23;;;;;;;14.19;100.00;100158.84;5014929;28;20197;-75
2022/09/08 04:07:38;;;;;;;7.93;5.37;;;;;;;14.18;100.00;100170.22;5011344;28;20212;-74
2022/09/08 04:10:06;;;;;;;11.70;5.97;;;;;;;14.18;100.00;100170.22;5011627;28;20209;-74
2022/09/08 04:12:33;;;;;;;9.47;5.80;;;;;;;14.17;100.00;100157.19;5006280;28;20203;-73
2022/09/08 04:15:00;;;;;;;8.50;5.37;;;;;;;14.14;100.00;100159.94;5010550;28;20209;-74
2022/09/08 04:17:26;;;;;;;8.03;5.53;;;;;;;14.12;100.00;100164.44;5008180;28;20211;-73
2022/09/08 04:19:54;;;;;;;7.57;5.80;;;;;;;14.10;100.00;100167.13;5001723;28;20218;-75
2022/09/08 04:22:21;;;;;;;6.83;5.30;;;;;;;14.09;100.00;100173.31;5014754;28;20737;-74
2022/09/08 04:24:48;;;;;;;6.40;5.30;;;;;;;14.08;100.00;100161.09;5020971;28;20529;-74
2022/09/08 04:27:17;;;;;;;7.03;5.27;;;;;;;14.05;100.00;100152.53;5002747;28;20193;-74
2022/09/08 04:29:44;;;;;;;7.60;5.37;;;;;;;14.02;100.00;100149.16;4998748;28;20686;-73
2022/09/08 04:32:11;;;;;;;8.67;5.97;;;;;;;14.01;100.00;100152.69;5005216;28;20194;-74
2022/09/08 04:34:37;;;;;;;8.70;5.17;;;;;;;14.02;100.00;100150.94;5009580;28;20211;-73
2022/09/08 04:37:06;;;;;;;8.83;5.40;;;;;;;14.02;100.00;100151.75;5007131;28;20197;-73
2022/09/08 04:39:33;;;;;;;8.97;5.47;;;;;;;14.01;100.00;100152.69;5006066;28;20216;-74
2022/09/08 04:42:00;;;;;;;7.73;5.13;;;;;;;14.02;100.00;100145.69;5023566;28;20590;-72
2022/09/08 04:44:26;;;;;;;7.60;5.43;;;;;;;14.04;100.00;100146.47;5003536;28;20232;-71
2022/09/08 04:46:53;;;;;;;7.87;5.53;;;;;;;14.04;100.00;100148.25;5003260;28;20209;-74
2022/09/08 04:49:19;;;;;;;8.07;5.60;;;;;;;14.05;100.00;100140.28;5006323;28;20223;-74
2022/09/08 04:51:46;;;;;;;6.27;5.17;;;;;;;14.05;100.00;100142.91;5000936;28;20196;-72
2022/09/08 04:54:14;;;;;;;6.67;5.07;;;;;;;14.06;100.00;100141.97;5000590;28;20601;-72
2022/09/08 04:56:40;;;;;;;7.27;4.90;;;;;;;14.09;100.00;100151.47;5008115;28;20266;-74
2022/09/08 04:59:06;;;;;;;12.87;5.70;;;;;;;14.10;100.00;100145.31;5011168;28;20224;-73
2022/09/08 05:01:35;;;;;;;7.97;4.60;;;;;;;14.11;100.00;100152.25;5008581;28;20236;-74
2022/09/08 05:04:03;;;;;;;6.80;5.30;;;;;;;14.12;100.00;100148.69;5000318;28;20215;-73
2022/09/08 05:06:31;;;;;;;7.10;5.33;;;;;;;14.14;100.00;100146.84;5016130;28;20275;-74
2022/09/08 05:09:00;;;;;;;8.53;5.70;;;;;;;14.17;100.00;100152.78;5007889;28;20320;-74
2022/09/08 05:11:31;;;;;;;8.20;5.60;;;;;;;14.21;100.00;100153.47;5009954;28;20198;-73
2022/09/08 05:13:58;;;;;;;7.60;5.10;;;;;;;14.27;100.00;100152.34;5011719;28;20226;-74
2022/09/08 05:16:26;;;;;;;7.03;5.60;;;;;;;14.31;100.00;100144.25;5018663;28;20216;-73
2022/09/08 05:18:54;;;;;;;7.23;5.57;;;;;;;14.36;100.00;100146.66;5004199;28;20871;-74
2022/09/08 05:21:21;;;;;;;8.97;5.80;;;;;;;14.42;100.00;100153.38;5007302;28;20210;-74
2022/09/08 05:23:49;;;;;;;10.20;6.17;;;;;;;14.48;100.00;100158.31;5008344;28;20565;-73
2022/09/08 05:26:18;;;;;;;8.57;5.97;;;;;;;14.54;100.00;100153.59;5008662;28;20203;-73
2022/09/08 05:28:47;;;;;;;10.33;5.83;;;;;;;14.59;100.00;100153.41;5005577;28;20222;-74
2022/09/08 05:31:15;;;;;;;9.47;6.13;;;;;;;14.67;100.00;100155.63;5001400;28;20190;-74
2022/09/08 05:33:42;;;;;;;8.87;6.27;;;;;;;14.68;100.00;100158.19;5004734;28;20570;-73
2022/09/08 05:36:10;;;;;;;10.50;6.27;;;;;;;14.72;100.00;100153.63;5005426;28;20204;-73
2022/09/08 05:38:37;;;;;;;10.10;6.43;;;;;;;14.74;100.00;100143.94;5005947;28;20247;-73
2022/09/08 05:41:04;;;;;;;7.97;6.20;;;;;;;14.78;100.00;100145.47;5015103;28;20194;-74
2022/09/08 05:43:30;;;;;;;9.53;6.73;;;;;;;14.86;100.00;100139.81;5006501;28;20208;-74
2022/09/08 05:45:59;;;;;;;8.80;6.33;;;;;;;14.92;100.00;100150.84;5005818;28;20206;-74
2022/09/08 05:48:25;;;;;;;8.77;5.93;;;;;;;14.99;100.00;100142.66;5005310;28;20298;-74
2022/09/08 05:50:52;;;;;;;9.20;6.57;;;;;;;15.05;100.00;100137.06;5013931;28;20234;-74
2022/09/08 05:53:18;;;;;;;8.43;6.33;;;;;;;15.12;100.00;100133.19;5005443;28;20199;-73
2022/09/08 05:55:55;;;;;;;9.17;6.60;;;;;;;15.15;100.00;100127.78;5011797;28;20207;-73
2022/09/08 05:58:22;;;;;;;8.63;6.50;;;;;;;15.20;100.00;100138.06;5005881;28;20223;-73
2022/09/08 06:00:54;;;;;;;9.37;6.37;;;;;;;15.28;100.00;100133.22;5022363;28;20611;-72
2022/09/08 06:03:21;;;;;;;10.53;6.03;;;;;;;15.33;100.00;100134.66;5006241;28;20212;-74
2022/09/08 06:05:48;;;;;;;8.13;6.23;;;;;;;15.42;100.00;100141.22;5006605;28;20204;-73
2022/09/08 06:08:14;;;;;;;7.40;5.67;;;;;;;15.48;100.00;100142.69;5020075;28;20226;-73
2022/09/08 06:10:40;;;;;;;7.60;5.90;;;;;;;15.46;100.00;100144.50;5005903;28;20205;-73
2022/09/08 06:13:07;;;;;;;10.57;5.80;;;;;;;15.47;100.00;100144.44;5013750;28;20202;-74
2022/09/08 06:15:34;;;;;;;11.10;6.00;;;;;;;15.51;100.00;100140.72;5011297;28;20223;-74
2022/09/08 06:18:01;;;;;;;7.00;5.43;;;;;;;15.53;100.00;100144.13;5008444;28;20709;-74
2022/09/08 06:20:29;;;;;;;9.53;6.10;;;;;;;15.56;100.00;100144.88;5024698;28;20265;-71
2022/09/08 06:22:55;;;;;;;10.90;5.60;;;;;;;15.60;100.00;100141.13;5010889;28;20274;-74
2022/09/08 06:25:21;;;;;;;7.13;6.10;;;;;;;15.62;100.00;100148.03;5025206;28;20204;-72
2022/09/08 06:27:56;;;;;;;8.40;6.10;;;;;;;15.66;100.00;100136.41;5003238;28;20229;-74
2022/09/08 06:30:22;;;;;;;10.07;5.80;;;;;;;15.68;100.00;100137.16;5009289;28;20307;-73
2022/09/08 06:32:53;;;;;;;8.20;6.27;;;;;;;15.74;100.00;100135.97;5005880;28;20212;-74
2022/09/08 06:35:24;;;;;;;7.30;5.43;;;;;;;15.75;100.00;100132.44;5006515;28;20196;-73
2022/09/08 06:37:55;;;;;;;8.73;6.20;;;;;;;15.78;100.00;100121.78;5006421;28;20224;-74
2022/09/08 06:40:25;;;;;;;6.87;5.83;;;;;;;15.75;100.00;100118.47;5018580;28;20200;-74
2022/09/08 06:43:01;;;;;;;8.93;5.97;;;;;;;15.75;100.00;100121.09;5003882;28;20248;-74
2022/09/08 06:45:34;;;;;;;8.30;5.93;;;;;;;15.81;100.00;100131.25;5001249;28;20212;-73
2022/09/08 06:48:20;;;;;;;8.40;5.50;;;;;;;15.82;100.00;100128.56;5014504;28;20298;-73
2022/09/08 06:51:00;;;;;;;9.77;5.67;;;;;;;15.87;100.00;100133.56;5009129;28;20220;-72
2022/09/08 06:53:35;;;;;;;7.47;5.50;;;;;;;15.90;100.00;100131.59;5001274;28;20193;-74
2022/09/08 06:56:13;;;;;;;6.83;5.60;;;;;;;15.95;100.00;100127.84;5009318;28;20211;-73
2022/09/08 06:58:41;;;;;;;8.27;5.67;;;;;;;16.04;100.00;100129.97;5007328;28;20607;-74
2022/09/08 07:01:17;;;;;;;7.60;5.67;;;;;;;16.11;100.00;100130.47;5006188;28;20201;-74
2022/09/08 07:03:56;;;;;;;6.93;5.63;;;;;;;16.18;100.00;100127.41;5004700;28;20577;-73
2022/09/08 07:06:26;;;;;;;8.07;5.73;;;;;;;16.23;100.00;100125.34;4998539;28;20201;-74
2022/09/08 07:09:11;;;;;;;7.87;5.20;;;;;;;16.27;100.00;100126.88;5004911;28;20228;-74
2022/09/08 07:11:56;;;;;;;8.33;5.37;;;;;;;16.37;100.00;100123.72;5007601;28;20192;-74
2022/09/08 07:14:47;;;;;;;9.07;5.40;;;;;;;16.50;100.00;100127.34;5005851;28;20689;-73
2022/09/08 07:17:20;;;;;;;7.30;5.63;;;;;;;16.52;100.00;100128.09;5010449;28;20208;-74
2022/09/08 07:19:49;;;;;;;9.23;5.70;;;;;;;16.59;100.00;100126.78;5004928;28;20204;-73
2022/09/08 07:22:31;;;;;;;8.60;5.40;;;;;;;16.63;100.00;100135.34;5012306;28;20208;-74
2022/09/08 07:25:14;;;;;;;9.03;5.67;;;;;;;16.69;100.00;100132.31;5010792;28;20662;-74
2022/09/08 07:27:42;;;;;;;6.17;5.50;;;;;;;16.73;100.00;100122.50;4999657;28;20213;-74
2022/09/08 07:30:14;;;;;;;8.57;5.57;;;;;;;16.78;100.00;100125.66;5010986;28;20219;-73
2022/09/08 07:32:42;;;;;;;8.63;5.40;;;;;;;16.79;100.00;100119.47;5007863;28;20201;-73
2022/09/08 07:35:17;;;;;;;6.73;5.40;;;;;;;16.94;100.00;100120.34;5012551;28;20196;-74
2022/09/08 07:37:48;;;;;;;5.20;4.60;;;;;;;17.02;100.00;100112.84;5014094;28;20295;-72
2022/09/08 07:40:18;;;;;;;9.10;5.07;;;;;;;17.16;100.00;100098.84;4998574;28;20201;-72
2022/09/08 07:42:49;;;;;;;6.57;5.13;;;;;;;17.30;100.00;100087.44;5007027;28;20555;-73
2022/09/08 07:45:16;;;;;;;7.97;5.40;;;;;;;17.38;100.00;100090.44;5012685;28;20622;-73
2022/09/08 07:48:07;;;;;;;6.60;4.97;;;;;;;17.50;100.00;100102.84;5017015;28;20611;-71
2022/09/08 07:50:56;;;;;;;8.60;5.40;;;;;;;17.64;100.00;100115.13;5001105;28;20223;-73
2022/09/08 07:53:49;;;;;;;6.77;5.20;;;;;;;17.74;100.00;100118.03;5006846;28;20215;-72
2022/09/08 07:56:22;;;;;;;7.60;5.10;;;;;;;17.83;100.00;100119.25;5003813;28;20196;-74
2022/09/08 07:59:06;;;;;;;8.10;5.00;;;;;;;17.92;100.00;100124.81;5006123;28;20611;-72
2022/09/08 08:01:40;;;;;;;6.67;5.03;;;;;;;17.98;100.00;100123.56;5007519;28;20205;-71
2022/09/08 08:04:26;;;;;;;6.83;5.17;;;;;;;18.07;100.00;100122.94;5002469;28;20227;-73
2022/09/08 08:06:55;;;;;;;7.70;5.20;;;;;;;18.17;100.00;100123.22;5004465;28;20703;-73
2022/09/08 08:09:33;;;;;;;8.10;5.27;;;;;;;18.27;100.00;100133.97;5011671;28;20631;-73
2022/09/08 08:12:08;;;;;;;6.33;4.40;;;;;;;18.36;100.00;100128.09;5014675;28;20204;-73
2022/09/08 08:14:45;;;;;;;6.47;4.90;;;;;;;18.37;100.00;100136.88;5025313;28;20622;-73
2022/09/08 08:17:29;;;;;;;10.20;5.57;;;;;;;18.47;100.00;100130.03;5010948;28;20215;-73
2022/09/08 08:20:12;;;;;;;9.13;5.20;;;;;;;18.56;100.00;100137.34;5007485;28;20204;-74
2022/09/08 08:22:59;;;;;;;7.43;5.40;;;;;;;18.57;100.00;100135.53;5006557;28;20216;-73
2022/09/08 08:25:29;;;;;;;8.60;4.90;;;;;;;18.66;100.00;100140.19;5020849;28;20212;-73
2022/09/08 08:28:06;;;;;;;7.17;4.87;;;;;;;18.73;100.00;100144.97;5003560;28;20701;-73
2022/09/08 08:30:35;;;;;;;15.67;5.57;;;;;;;18.74;100.00;100137.88;5002231;28;20702;-73
2022/09/08 08:33:10;;;;;;;8.03;5.07;;;;;;;18.78;100.00;100128.78;5023195;28;20211;-74
2022/09/08 08:35:43;;;;;;;7.90;4.63;;;;;;;18.80;100.00;100133.97;5013784;28;20199;-71
2022/09/08 08:38:15;;;;;;;6.23;4.87;;;;;;;18.80;100.00;100126.88;5007583;28;20203;-72
2022/09/08 08:40:53;;;;;;;8.80;4.53;;;;;;;18.86;100.00;100130.94;5011344;28;20205;-72
2022/09/08 08:43:58;;;;;;;9.03;5.10;;;;;;;18.79;100.00;100127.00;5013025;28;20210;-72
2022/09/08 08:46:51;;;;;;;7.87;5.40;;;;;;;18.72;100.00;100137.13;5004571;28;20802;-73
2022/09/08 08:49:39;;;;;;;6.23;4.80;;;;;;;18.72;100.00;100131.84;5008490;28;20307;-73
2022/09/08 08:52:17;;;;;;;7.50;4.73;;;;;;;18.68;100.00;100136.50;5007148;28;20208;-72
2022/09/08 08:54:55;;;;;;;6.23;4.90;;;;;;;18.69;100.00;100140.81;5005545;28;20211;-72
2022/09/08 08:57:35;;;;;;;5.57;4.50;;;;;;;18.71;100.00;100140.72;5005953;28;20201;-72
2022/09/08 09:00:19;;;;;;;6.03;4.90;;;;;;;18.68;100.00;100136.50;5013379;28;20204;-73
2022/09/08 09:03:30;;;;;;;7.57;4.97;;;;;;;18.67;100.00;100129.50;5009404;28;20713;-69
2022/09/08 09:06:10;;;;;;;9.77;5.07;;;;;;;18.71;100.00;100132.78;4998599;28;20298;-73
2022/09/08 09:09:02;;;;;;;6.80;4.90;;;;;;;18.72;100.00;100126.56;5012296;28;20212;-73
2022/09/08 09:11:43;;;;;;;10.23;4.97;;;;;;;18.80;100.00;100111.03;5016211;28;20207;-73
2022/09/08 09:14:34;;;;;;;6.90;4.47;;;;;;;18.88;100.00;100108.75;5018308;28;20199;-72
2022/09/08 09:17:18;;;;;;;6.73;4.90;;;;;;;18.94;100.00;100111.91;5014625;28;20255;-72
2022/09/08 09:20:24;;;;;;;8.07;5.10;;;;;;;19.01;100.00;100110.53;5013442;28;20483;-73
2022/09/08 09:22:55;;;;;;;6.37;4.80;;;;;;;19.11;100.00;100109.78;5006922;28;20240;-71
2022/09/08 09:25:31;;;;;;;8.20;5.00;;;;;;;19.23;100.00;100107.25;5007624;28;20694;-72
2022/09/08 09:28:18;;;;;;;6.60;4.67;;;;;;;19.33;100.00;100113.59;5007426;28;20231;-73
2022/09/08 09:31:00;;;;;;;8.30;5.00;;;;;;;19.40;100.00;100119.25;5001244;28;20231;-72
2022/09/08 09:33:53;;;;;;;8.90;4.90;;;;;;;19.42;100.00;100114.72;5001357;28;20193;-73
2022/09/08 09:36:43;;;;;;;5.83;4.53;;;;;;;19.45;100.00;100117.13;5005917;28;20592;-71
2022/09/08 09:39:32;;;;;;;6.53;4.83;;;;;;;19.58;100.00;100117.97;5011583;28;20226;-73
2022/09/08 09:42:17;;;;;;;8.53;5.03;;;;;;;19.65;100.00;100123.66;5007684;28;20205;-72
2022/09/08 09:45:09;;;;;;;5.37;4.67;;;;;;;19.73;100.00;100131.03;5019165;28;20220;-73
2022/09/08 09:47:51;;;;;;;8.07;4.50;;;;;;;19.82;100.00;100115.38;5007421;28;20306;-72
2022/09/08 09:50:39;;;;;;;6.03;4.67;;;;;;;19.91;100.00;100110.34;5012521;28;20215;-73
2022/09/08 09:53:21;;;;;;;7.50;5.07;;;;;;;19.99;100.00;100113.28;5006281;28;20209;-72
2022/09/08 09:56:08;;;;;;;6.53;4.87;;;;;;;20.07;100.00;100112.72;5006327;28;20681;-73
2022/09/08 09:59:00;;;;;;;6.93;5.30;;;;;;;20.10;100.00;100115.13;5001493;28;20212;-72
2022/09/08 10:01:52;;;;;;;6.37;4.80;;;;;;;20.27;100.00;100113.88;5009994;28;20197;-74
2022/09/08 10:04:55;;;;;;;7.50;4.93;;;;;;;20.28;100.00;100116.44;5002869;28;20303;-74
2022/09/08 10:07:47;;;;;;;8.57;5.63;;;;;;;20.35;100.00;100116.78;5009727;28;20204;-73
2022/09/08 10:10:51;;;;;;;5.90;5.07;;;;;;;20.40;100.00;100126.09;4998122;28;20200;-73
2022/09/08 10:13:35;;;;;;;9.83;5.80;;;;;;;20.33;100.00;100119.53;4981303;28;20211;-74
2022/09/08 10:16:41;;;;;;;6.00;5.03;;;;;;;20.33;100.00;100110.78;5014371;28;20419;-73
2022/09/08 10:19:32;;;;;;;6.97;5.40;;;;;;;20.29;100.00;100114.63;5006448;28;20252;-70
2022/09/08 10:22:39;;;;;;;8.73;5.50;;;;;;;20.29;100.00;100106.69;5019601;28;20205;-72
2022/09/08 10:25:43;;;;;;;8.77;5.03;;;;;;;20.26;100.00;100106.91;5000927;28;20197;-73
2022/09/08 10:28:27;;;;;;;7.70;5.17;;;;;;;20.23;100.00;100111.47;4992900;28;20234;-73
2022/09/08 10:31:22;;;;;;;8.07;5.10;;;;;;;20.13;100.00;100115.75;5003429;28;20202;-73
2022/09/08 10:34:30;;;;;;;9.00;5.47;;;;;;;20.16;100.00;100106.75;4981102;28;20788;-74
2022/09/08 10:37:04;;;;;;;8.07;5.27;;;;;;;20.14;100.00;100103.34;5008223;28;20197;-74
2022/09/08 10:39:42;;;;;;;8.73;5.20;;;;;;;20.11;100.00;100093.84;5010553;28;20220;-73
2022/09/08 10:42:38;;;;;;;6.97;5.30;;;;;;;20.08;100.00;100102.00;5002109;28;20209;-74
2022/09/08 10:45:21;;;;;;;6.30;5.20;;;;;;;20.11;100.00;100093.84;5008045;28;20248;-72
2022/09/08 10:48:17;;;;;;;8.13;5.80;;;;;;;20.13;100.00;100099.88;5005120;28;20606;-74
2022/09/08 10:50:50;;;;;;;7.33;5.80;;;;;;;20.18;100.00;100096.91;5014949;28;20216;-71
2022/09/08 10:53:37;;;;;;;8.40;5.77;;;;;;;20.16;100.00;100090.88;5000988;28;20192;-73
2022/09/08 10:56:12;;;;;;;7.87;5.80;;;;;;;20.10;100.00;100092.16;5011674;28;20203;-71
2022/09/08 10:59:17;;;;;;;6.57;5.50;;;;;;;19.93;100.00;100087.25;5011502;28;20222;-73
2022/09/08 11:02:03;;;;;;;10.03;6.03;;;;;;;19.85;100.00;100098.44;5008693;28;20196;-73
2022/09/08 11:05:19;;;;;;;7.93;5.73;;;;;;;19.78;100.00;100100.66;5007320;28;20541;-71
2022/09/08 11:08:17;;;;;;;9.10;5.70;;;;;;;19.73;100.00;100099.28;5003351;28;20400;-71
2022/09/08 11:11:06;;;;;;;8.53;5.77;;;;;;;19.68;100.00;100099.59;5007527;28;20205;-72
2022/09/08 11:13:37;;;;;;;7.10;5.83;;;;;;;19.65;100.00;100098.03;5019128;28;20204;-73
2022/09/08 11:16:31;;;;;;;8.83;5.73;;;;;;;19.61;100.00;100088.66;5012394;28;20200;-71
2022/09/08 11:19:18;;;;;;;6.77;5.23;;;;;;;19.56;100.00;100089.91;5009457;28;20319;-73
2022/09/08 11:21:52;;;;;;;8.03;5.93;;;;;;;19.47;100.00;100084.38;5020189;28;20203;-71
2022/09/08 11:24:25;;;;;;;8.87;6.37;;;;;;;19.45;100.00;100078.34;5012997;28;20215;-72
2022/09/08 11:27:03;;;;;;;7.43;5.90;;;;;;;19.49;100.00;100082.44;5010474;28;20287;-72
2022/09/08 11:29:35;;;;;;;8.33;5.90;;;;;;;19.55;100.00;100088.25;5010379;28;20701;-73
2022/09/08 11:32:12;;;;;;;7.30;6.27;;;;;;;19.64;100.00;100077.84;5013880;28;20691;-74
2022/09/08 11:35:02;;;;;;;9.37;6.83;;;;;;;19.66;100.00;100080.38;5013846;28;20223;-73
2022/09/08 11:38:02;;;;;;;7.07;6.10;;;;;;;19.65;100.00;100089.28;5001744;28;20200;-73
2022/09/08 11:40:45;;;;;;;8.93;6.80;;;;;;;19.60;100.00;100071.09;5005010;28;20200;-73
2022/09/08 11:43:29;;;;;;;11.13;6.70;;;;;;;19.62;100.00;100074.47;5011511;28;20201;-71
2022/09/08 11:46:09;;;;;;;8.63;6.43;;;;;;;19.59;100.00;100066.75;5009469;28;20219;-70
2022/09/08 11:48:54;;;;;;;9.90;6.80;;;;;;;19.63;100.00;100055.00;5006540;28;20814;-73
2022/09/08 11:51:35;;;;;;;8.00;7.13;;;;;;;19.68;100.00;100044.94;5006025;28;20650;-73
2022/09/08 11:54:23;;;;;;;8.90;7.43;;;;;;;19.78;100.00;100039.84;5014176;28;20235;-71
2022/09/08 11:57:21;;;;;;;10.03;6.47;;;;;;;19.83;100.00;100036.88;5019532;28;20700;-71
2022/09/08 12:00:22;;;;;;;10.83;6.60;;;;;;;19.94;100.00;100022.84;5009627;28;20661;-73